createdAt,value
2022-11-18T00:01:31.771Z,97.53
2022-11-18T00:04:01.891Z,97.54
2022-11-18T00:06:31.731Z,97.73
2022-11-18T00:09:01.211Z,97.93
2022-11-18T00:11:47.657Z,97.97
2022-11-18T00:14:22.243Z,97.86
2022-11-18T00:16:54.847Z,98.07
2022-11-18T00:19:27.265Z,97.58
2022-11-18T00:21:56.458Z,97.34
2022-11-18T00:24:26.319Z,97.71
2022-11-18T00:26:55.580Z,97.89
2022-11-18T00:29:26.296Z,97.98
2022-11-18T00:31:54.665Z,98.25
2022-11-18T00:34:25.807Z,98.57
2022-11-18T00:36:54.163Z,98.42
2022-11-18T00:39:22.893Z,98.35
2022-11-18T00:42:09.056Z,98.25
2022-11-18T00:44:37.734Z,97.87
2022-11-18T00:47:06.616Z,97.56
2022-11-18T00:49:36.359Z,98.03
2022-11-18T00:52:05.474Z,98.15
2022-11-18T00:54:33.713Z,98.41
2022-11-18T00:57:02.057Z,98.64
2022-11-18T00:59:30.294Z,98.60
2022-11-18T01:01:58.690Z,98.86
2022-11-18T01:04:27.104Z,98.94
2022-11-18T01:06:56.776Z,99.33
2022-11-18T01:09:25.081Z,99.76
2022-11-18T01:12:11.059Z,99.65
2022-11-18T01:14:39.502Z,99.64
2022-11-18T01:17:07.851Z,99.77
2022-11-18T01:19:36.567Z,99.58
2022-11-18T01:22:06.240Z,99.71
2022-11-18T01:24:35.385Z,99.90
2022-11-18T01:27:03.754Z,99.98
2022-11-18T01:29:32.453Z,99.90
2022-11-18T01:34:49.301Z,100.00
2022-11-18T01:37:19.094Z,100.00
2022-11-18T01:39:47.386Z,100.00
2022-11-18T01:42:18.324Z,100.00
2022-11-18T01:45:19.045Z,100.00
2022-11-18T01:47:54.588Z,100.00
2022-11-18T01:50:24.588Z,100.00
2022-11-18T01:52:58.721Z,100.00
2022-11-18T01:55:31.271Z,100.00
2022-11-18T01:58:09.414Z,100.00
2022-11-18T02:00:38.380Z,100.00
2022-11-18T02:03:07.321Z,100.00
2022-11-18T02:05:36.820Z,100.00
2022-11-18T02:08:08.889Z,100.00
2022-11-18T02:10:37.350Z,100.00
2022-11-18T02:13:07.685Z,100.00
2022-11-18T02:15:58.216Z,100.00
2022-11-18T02:18:36.950Z,100.00
2022-11-18T02:21:22.210Z,100.00
2022-11-18T02:24:23.421Z,100.00
2022-11-18T02:27:45.767Z,100.00
2022-11-18T02:30:18.277Z,100.00
2022-11-18T02:32:55.410Z,99.85
2022-11-18T02:35:30.010Z,99.84
2022-11-18T02:38:03.873Z,99.80
2022-11-18T02:40:38.368Z,99.51
2022-11-18T02:43:10.500Z,99.83
2022-11-18T02:45:42.422Z,100.00
2022-11-18T02:48:12.960Z,100.00
2022-11-18T02:50:44.813Z,100.00
2022-11-18T02:53:17.925Z,100.00
2022-11-18T02:55:48.124Z,100.00
2022-11-18T02:58:19.248Z,100.00
2022-11-18T03:00:55.213Z,100.00
2022-11-18T03:03:28.092Z,100.00
2022-11-18T03:06:09.047Z,100.00
2022-11-18T03:08:42.634Z,100.00
2022-11-18T03:11:17.498Z,100.00
2022-11-18T03:14:05.560Z,100.00
2022-11-18T03:16:40.509Z,100.00
2022-11-18T03:19:11.249Z,100.00
2022-11-18T03:21:46.499Z,100.00
2022-11-18T03:24:20.498Z,100.00
2022-11-18T03:26:55.389Z,100.00
2022-11-18T03:29:31.077Z,100.00
2022-11-18T03:32:04.469Z,100.00
2022-11-18T03:34:39.302Z,98.39
2022-11-18T03:37:10.770Z,97.32
2022-11-18T03:39:45.830Z,96.52
2022-11-18T03:42:16.756Z,95.96
2022-11-18T03:44:52.651Z,95.99
2022-11-18T03:47:28.836Z,95.60
2022-11-18T03:50:02.206Z,96.15
2022-11-18T03:52:34.641Z,96.47
2022-11-18T03:55:10.117Z,96.67
2022-11-18T03:57:46.769Z,97.38
2022-11-18T04:00:17.930Z,97.34
2022-11-18T04:02:50.525Z,98.81
2022-11-18T04:05:20.068Z,99.65
2022-11-18T04:07:57.510Z,100.00
2022-11-18T04:10:32.108Z,100.00
2022-11-18T04:13:06.896Z,100.00
2022-11-18T04:15:38.041Z,100.00
2022-11-18T04:18:08.117Z,100.00
2022-11-18T04:20:37.438Z,100.00
2022-11-18T04:23:06.807Z,100.00
2022-11-18T04:25:36.256Z,100.00
2022-11-18T04:28:05.457Z,100.00
2022-11-18T04:30:35.168Z,99.02
2022-11-18T04:33:03.843Z,98.79
2022-11-18T04:35:33.495Z,98.53
2022-11-18T04:38:01.826Z,96.57
2022-11-18T04:40:30.145Z,97.21
2022-11-18T04:42:58.672Z,96.45
2022-11-18T04:45:27.096Z,94.45
2022-11-18T04:48:00.292Z,94.65
2022-11-18T04:50:32.875Z,95.87
2022-11-18T04:53:01.254Z,96.27
2022-11-18T04:55:29.487Z,95.77
2022-11-18T04:57:57.902Z,95.61
2022-11-18T05:00:26.280Z,95.65
2022-11-18T05:02:54.620Z,96.19
2022-11-18T05:05:23.053Z,95.90
2022-11-18T05:07:53.539Z,94.97
2022-11-18T05:10:21.838Z,93.60
2022-11-18T05:12:49.208Z,95.00
2022-11-18T05:15:18.592Z,95.88
2022-11-18T05:17:47.494Z,96.04
2022-11-18T05:20:16.236Z,95.46
2022-11-18T05:22:44.564Z,94.63
2022-11-18T05:25:14.252Z,95.06
2022-11-18T05:27:42.642Z,95.37
2022-11-18T05:30:12.751Z,95.48
2022-11-18T05:32:41.115Z,96.03
2022-11-18T05:35:10.422Z,96.82
2022-11-18T05:37:38.710Z,96.51
2022-11-18T05:40:09.329Z,96.69
2022-11-18T05:42:56.623Z,96.70
2022-11-18T05:45:25.105Z,96.37
2022-11-18T05:48:04.433Z,96.98
2022-11-18T05:50:34.847Z,97.50
2022-11-18T05:53:04.731Z,97.49
2022-11-18T05:55:41.150Z,97.22
2022-11-18T05:58:10.888Z,96.88
2022-11-18T06:00:39.457Z,96.83
2022-11-18T06:03:14.827Z,96.58
2022-11-18T06:05:43.244Z,96.25
2022-11-18T06:08:13.660Z,95.86
2022-11-18T06:10:44.075Z,95.29
2022-11-18T06:13:21.005Z,95.44
2022-11-18T06:15:49.471Z,95.70
2022-11-18T06:18:23.289Z,96.15
2022-11-18T06:20:53.893Z,96.42
2022-11-18T06:23:22.602Z,96.08
2022-11-18T06:25:51.260Z,96.69
2022-11-18T06:28:21.786Z,97.44
2022-11-18T06:30:50.129Z,97.22
2022-11-18T06:33:18.459Z,97.33
2022-11-18T06:35:46.816Z,97.67
2022-11-18T06:38:15.303Z,97.64
2022-11-18T06:40:44.781Z,97.62
2022-11-18T06:43:31.690Z,97.60
2022-11-18T06:46:19.360Z,97.16
2022-11-18T06:48:48.088Z,96.31
2022-11-18T06:51:16.660Z,94.82
2022-11-18T06:53:45.218Z,95.01
2022-11-18T06:56:16.885Z,95.75
2022-11-18T06:58:45.260Z,96.70
2022-11-18T07:01:17.777Z,96.14
2022-11-18T07:03:47.671Z,95.44
2022-11-18T07:06:18.975Z,96.01
2022-11-18T07:08:47.573Z,96.16
2022-11-18T07:11:18.259Z,96.32
2022-11-18T07:13:48.277Z,95.85
2022-11-18T07:16:20.582Z,96.48
2022-11-18T07:18:51.438Z,96.18
2022-11-18T07:21:21.648Z,96.13
2022-11-18T07:23:50.439Z,96.34
2022-11-18T07:26:19.487Z,96.45
2022-11-18T07:28:48.102Z,96.35
2022-11-18T07:31:20.287Z,96.06
2022-11-18T07:33:50.241Z,95.53
2022-11-18T07:36:20.662Z,95.55
2022-11-18T07:38:49.490Z,95.80
2022-11-18T07:41:19.858Z,95.12
2022-11-18T07:43:50.537Z,95.53
2022-11-18T07:46:22.714Z,95.66
2022-11-18T07:48:53.258Z,95.81
2022-11-18T07:51:24.149Z,95.72
2022-11-18T07:53:52.783Z,96.34
2022-11-18T07:56:22.363Z,97.10
2022-11-18T07:58:55.962Z,97.21
2022-11-18T08:01:28.949Z,97.82
2022-11-18T08:03:58.047Z,97.78
2022-11-18T08:06:26.470Z,96.75
2022-11-18T08:08:54.916Z,96.48
2022-11-18T08:11:23.422Z,96.04
2022-11-18T08:13:52.574Z,96.08
2022-11-18T08:16:27.240Z,95.93
2022-11-18T08:18:55.824Z,96.57
2022-11-18T08:21:24.758Z,96.63
2022-11-18T08:23:55.090Z,96.59
2022-11-18T08:26:24.848Z,96.99
2022-11-18T08:28:53.893Z,97.56
2022-11-18T08:31:25.312Z,97.99
2022-11-18T08:33:58.429Z,98.57
2022-11-18T08:36:28.912Z,98.98
2022-11-18T08:38:58.188Z,98.76
2022-11-18T08:41:32.762Z,99.26
2022-11-18T08:44:01.794Z,99.38
2022-11-18T08:46:30.291Z,99.41
2022-11-18T08:49:00.604Z,99.19
2022-11-18T08:51:29.407Z,99.93
2022-11-18T08:53:58.250Z,100.00
2022-11-18T08:56:27.061Z,100.00
2022-11-18T08:58:55.828Z,99.45
2022-11-18T09:01:24.370Z,99.79
2022-11-18T09:03:52.814Z,99.90
2022-11-18T09:06:24.819Z,100.00
2022-11-18T09:08:54.605Z,100.00
2022-11-18T09:11:25.376Z,100.00
2022-11-18T09:16:44.706Z,100.00
2022-11-18T09:22:02.853Z,100.00
2022-11-18T09:24:31.280Z,100.00
2022-11-18T09:26:59.832Z,100.00
2022-11-18T09:29:28.190Z,99.77
2022-11-18T09:31:56.831Z,99.26
2022-11-18T09:34:25.198Z,99.39
2022-11-18T09:36:55.817Z,98.90
2022-11-18T09:39:26.298Z,99.68
2022-11-18T09:42:12.393Z,100.00
2022-11-18T09:45:01.280Z,100.00
2022-11-18T09:47:32.929Z,100.00
2022-11-18T09:50:26.608Z,100.00
2022-11-18T09:53:05.880Z,100.00
2022-11-18T09:55:38.401Z,100.00
2022-11-18T09:58:07.842Z,100.00
2022-11-18T10:00:36.191Z,100.00
2022-11-18T10:03:07.192Z,100.00
2022-11-18T10:05:49.649Z,100.00
2022-11-18T10:08:26.797Z,100.00
2022-11-18T10:11:04.906Z,100.00
2022-11-18T10:13:50.092Z,100.00
2022-11-18T10:16:41.991Z,100.00
2022-11-18T10:19:25.597Z,100.00
2022-11-18T10:22:18.004Z,100.00
2022-11-18T10:24:53.611Z,100.00
2022-11-18T10:27:25.653Z,100.00
2022-11-18T10:29:57.423Z,100.00
2022-11-18T10:32:25.853Z,100.00
2022-11-18T10:34:56.629Z,100.00
2022-11-18T10:37:52.576Z,100.00
2022-11-18T10:40:28.918Z,100.00
2022-11-18T10:42:58.827Z,100.00
2022-11-18T10:45:30.608Z,100.00
2022-11-18T10:48:03.236Z,100.00
2022-11-18T10:50:35.421Z,100.00
2022-11-18T10:53:05.576Z,100.00
2022-11-18T10:55:34.462Z,100.00
2022-11-18T10:58:10.680Z,100.00
2022-11-18T11:00:43.897Z,100.00
2022-11-18T11:03:26.640Z,100.00
2022-11-18T11:06:32.424Z,100.00
2022-11-18T11:09:08.743Z,100.00
2022-11-18T11:11:40.071Z,100.00
2022-11-18T11:14:23.909Z,99.47
2022-11-18T11:17:00.894Z,99.18
2022-11-18T11:19:40.289Z,99.22
2022-11-18T11:22:12.109Z,98.94
2022-11-18T11:24:40.829Z,99.16
2022-11-18T11:30:22.262Z,99.38
2022-11-18T11:33:27.718Z,99.58
2022-11-18T11:36:18.559Z,98.88
2022-11-18T11:39:04.620Z,98.29
2022-11-18T11:41:46.333Z,98.54
2022-11-18T11:44:36.353Z,97.97
2022-11-18T11:47:52.424Z,97.73
2022-11-18T11:50:30.275Z,97.20
2022-11-18T11:53:18.622Z,96.74
2022-11-18T11:56:05.833Z,96.26
2022-11-18T11:59:17.735Z,97.45
2022-11-18T12:02:00.135Z,95.50
2022-11-18T12:04:39.506Z,95.99
2022-11-18T12:07:16.553Z,96.52
2022-11-18T12:10:10.621Z,94.70
2022-11-18T12:12:51.271Z,92.31
2022-11-18T12:15:37.057Z,93.23
2022-11-18T12:18:14.865Z,91.44
2022-11-18T12:20:48.294Z,91.02
2022-11-18T12:23:20.243Z,92.40
2022-11-18T12:26:02.790Z,92.99
2022-11-18T12:28:35.862Z,92.23
2022-11-18T12:31:38.601Z,88.92
2022-11-18T12:34:31.919Z,88.11
2022-11-18T12:37:47.993Z,87.85
2022-11-18T12:40:52.754Z,87.81
2022-11-18T12:44:06.580Z,87.82
2022-11-18T12:46:55.484Z,85.99
2022-11-18T12:50:13.279Z,86.84
2022-11-18T12:52:52.662Z,87.79
2022-11-18T12:55:33.046Z,87.98
2022-11-18T12:58:02.352Z,87.73
2022-11-18T13:00:52.475Z,86.77
2022-11-18T13:03:28.914Z,86.33
2022-11-18T13:06:16.441Z,86.73
2022-11-18T13:08:53.787Z,88.44
2022-11-18T13:11:40.695Z,88.84
2022-11-18T13:14:35.553Z,89.19
2022-11-18T13:17:21.587Z,90.26
2022-11-18T13:19:57.813Z,91.07
2022-11-18T13:22:44.310Z,90.35
2022-11-18T13:25:28.205Z,88.78
2022-11-18T13:28:08.905Z,86.09
2022-11-18T13:30:46.218Z,86.77
2022-11-18T13:33:14.615Z,86.17
2022-11-18T13:35:43.134Z,84.07
2022-11-18T13:38:28.015Z,82.64
2022-11-18T13:41:12.621Z,82.78
2022-11-18T13:43:41.405Z,82.64
2022-11-18T13:46:17.498Z,82.16
2022-11-18T13:48:53.007Z,80.27
2022-11-18T13:51:22.921Z,77.09
2022-11-18T13:53:51.498Z,76.07
2022-11-18T13:56:30.299Z,75.25
2022-11-18T13:59:29.142Z,74.95
2022-11-18T14:01:57.420Z,76.38
2022-11-18T14:04:27.862Z,77.79
2022-11-18T14:07:31.384Z,78.67
2022-11-18T14:10:02.255Z,77.76
2022-11-18T14:12:33.916Z,77.67
2022-11-18T14:15:23.420Z,77.19
2022-11-18T14:17:54.639Z,76.58
2022-11-18T14:20:24.450Z,76.09
2022-11-18T14:22:56.647Z,76.35
2022-11-18T14:25:29.596Z,76.86
2022-11-18T14:28:13.312Z,75.91
2022-11-18T14:30:43.333Z,75.82
2022-11-18T14:33:20.536Z,75.27
2022-11-18T14:35:56.890Z,74.94
2022-11-18T14:38:43.526Z,74.48
2022-11-18T14:41:45.013Z,73.74
2022-11-18T14:44:15.517Z,72.95
2022-11-18T14:46:46.281Z,72.60
2022-11-18T14:49:18.180Z,72.07
2022-11-18T14:51:47.436Z,73.00
2022-11-18T14:54:20.973Z,72.47
2022-11-18T14:56:57.236Z,72.90
2022-11-18T14:59:27.096Z,73.61
2022-11-18T15:01:56.560Z,73.33
2022-11-18T15:04:26.147Z,73.96
2022-11-18T15:06:54.771Z,74.07
2022-11-18T15:09:23.391Z,74.50
2022-11-18T15:11:51.748Z,75.20
2022-11-18T15:14:20.386Z,75.37
2022-11-18T15:16:50.580Z,75.55
2022-11-18T15:19:18.941Z,75.98
2022-11-18T15:21:47.374Z,76.08
2022-11-18T15:24:16.332Z,76.48
2022-11-18T15:26:47.133Z,76.44
2022-11-18T15:29:19.495Z,76.25
2022-11-18T15:31:49.712Z,76.99
2022-11-18T15:34:21.603Z,77.25
2022-11-18T15:36:50.810Z,77.63
2022-11-18T15:39:19.133Z,77.83
2022-11-18T15:41:47.461Z,74.79
2022-11-18T15:44:16.467Z,75.13
2022-11-18T15:46:47.880Z,75.04
2022-11-18T15:49:18.523Z,75.38
2022-11-18T15:51:46.951Z,76.32
2022-11-18T15:54:15.545Z,77.56
2022-11-18T15:56:43.973Z,78.35
2022-11-18T15:59:14.559Z,79.07
2022-11-18T16:01:45.328Z,79.66
2022-11-18T16:04:18.787Z,79.96
2022-11-18T16:06:47.692Z,79.47
2022-11-18T16:09:18.022Z,80.33
2022-11-18T16:12:04.161Z,80.32
2022-11-18T16:14:32.449Z,80.64
2022-11-18T16:17:01.107Z,80.69
2022-11-18T16:19:33.564Z,80.85
2022-11-18T16:22:02.126Z,80.23
2022-11-18T16:24:31.374Z,80.53
2022-11-18T16:26:59.788Z,79.96
2022-11-18T16:29:28.329Z,80.47
2022-11-18T16:31:56.734Z,80.14
2022-11-18T16:34:27.991Z,80.31
2022-11-18T16:37:00.744Z,80.35
2022-11-18T16:39:29.865Z,80.32
2022-11-18T16:42:07.360Z,80.18
2022-11-18T16:44:36.976Z,80.70
2022-11-18T16:47:13.699Z,81.08
2022-11-18T16:49:43.889Z,80.95
2022-11-18T16:52:13.855Z,80.48
2022-11-18T16:54:45.732Z,80.13
2022-11-18T16:57:15.507Z,80.45
2022-11-18T16:59:44.055Z,80.46
2022-11-18T17:02:14.725Z,79.79
2022-11-18T17:04:43.826Z,79.04
2022-11-18T17:07:14.225Z,78.91
2022-11-18T17:09:42.849Z,78.69
2022-11-18T17:12:11.355Z,79.55
2022-11-18T17:14:40.250Z,79.73
2022-11-18T17:17:09.414Z,78.95
2022-11-18T17:19:38.027Z,79.05
2022-11-18T17:22:06.481Z,79.50
2022-11-18T17:24:36.416Z,78.99
2022-11-18T17:27:04.919Z,79.76
2022-11-18T17:29:34.539Z,80.22
2022-11-18T17:32:02.974Z,80.39
2022-11-18T17:34:31.366Z,81.10
2022-11-18T17:37:05.103Z,80.96
2022-11-18T17:39:36.519Z,80.78
2022-11-18T17:42:22.622Z,80.98
2022-11-18T17:44:51.143Z,80.63
2022-11-18T17:47:19.657Z,80.46
2022-11-18T17:49:48.183Z,80.89
2022-11-18T17:52:16.632Z,79.78
2022-11-18T17:54:46.522Z,80.34
2022-11-18T17:57:15.153Z,80.25
2022-11-18T17:59:43.501Z,80.32
2022-11-18T18:02:13.569Z,80.77
2022-11-18T18:04:41.927Z,80.24
2022-11-18T18:07:10.731Z,80.41
2022-11-18T18:09:39.071Z,80.06
2022-11-18T18:12:23.296Z,80.68
2022-11-18T18:14:51.927Z,79.48
2022-11-18T18:17:20.377Z,80.19
2022-11-18T18:19:48.756Z,81.46
2022-11-18T18:22:17.079Z,81.22
2022-11-18T18:24:45.658Z,80.76
2022-11-18T18:27:15.513Z,81.33
2022-11-18T18:29:43.921Z,80.33
2022-11-18T18:32:12.717Z,80.90
2022-11-18T18:34:41.150Z,81.30
2022-11-18T18:37:09.470Z,81.49
2022-11-18T18:39:37.895Z,81.33
2022-11-18T18:42:06.706Z,81.14
2022-11-18T18:44:53.892Z,81.28
2022-11-18T18:47:22.577Z,81.35
2022-11-18T18:49:50.954Z,81.24
2022-11-18T18:52:19.387Z,81.27
2022-11-18T18:54:47.886Z,81.21
2022-11-18T18:57:16.255Z,81.65
2022-11-18T18:59:46.147Z,81.19
2022-11-18T19:02:14.630Z,81.48
2022-11-18T19:04:44.823Z,81.00
2022-11-18T19:07:13.286Z,81.55
2022-11-18T19:09:41.777Z,82.04
2022-11-18T19:12:28.256Z,82.13
2022-11-18T19:14:58.254Z,81.37
2022-11-18T19:17:26.867Z,81.77
2022-11-18T19:20:12.875Z,81.82
2022-11-18T19:22:41.191Z,81.55
2022-11-18T19:25:10.818Z,82.30
2022-11-18T19:27:40.385Z,82.63
2022-11-18T19:30:12.625Z,82.63
2022-11-18T19:32:42.771Z,82.73
2022-11-18T19:35:12.101Z,82.39
2022-11-18T19:37:40.555Z,82.21
2022-11-18T19:40:11.022Z,81.81
2022-11-18T19:42:40.651Z,82.56
2022-11-18T19:45:11.715Z,82.54
2022-11-18T19:47:40.434Z,81.94
2022-11-18T19:50:12.608Z,82.25
2022-11-18T19:52:41.056Z,82.16
2022-11-18T19:55:10.690Z,82.59
2022-11-18T19:57:39.642Z,82.94
2022-11-18T20:00:11.816Z,82.45
2022-11-18T20:02:42.251Z,82.76
2022-11-18T20:05:28.543Z,82.71
2022-11-18T20:07:57.129Z,83.47
2022-11-18T20:10:25.524Z,83.13
2022-11-18T20:12:53.996Z,83.36
2022-11-18T20:15:23.970Z,82.76
2022-11-18T20:17:52.726Z,83.11
2022-11-18T20:20:21.583Z,82.96
2022-11-18T20:22:50.303Z,82.81
2022-11-18T20:25:18.886Z,82.65
2022-11-18T20:27:47.467Z,82.85
2022-11-18T20:30:17.695Z,82.76
2022-11-18T20:32:47.782Z,82.30
2022-11-18T20:35:17.150Z,82.55
2022-11-18T20:37:45.965Z,82.25
2022-11-18T20:40:14.729Z,82.61
2022-11-18T20:43:00.620Z,82.99
2022-11-18T20:45:29.153Z,83.38
2022-11-18T20:47:59.352Z,83.10
2022-11-18T20:50:27.888Z,83.35
2022-11-18T20:52:56.454Z,83.57
2022-11-18T20:55:24.802Z,84.18
2022-11-18T20:57:53.235Z,83.58
2022-11-18T21:00:22.058Z,83.50
2022-11-18T21:02:50.549Z,83.30
2022-11-18T21:05:20.251Z,82.58
2022-11-18T21:07:50.612Z,82.66
2022-11-18T21:10:19.279Z,83.08
2022-11-18T21:13:05.551Z,82.44
2022-11-18T21:15:34.231Z,83.13
2022-11-18T21:18:03.074Z,82.94
2022-11-18T21:20:51.135Z,82.91
2022-11-18T21:23:19.520Z,82.97
2022-11-18T21:25:47.870Z,82.98
2022-11-18T21:28:16.437Z,83.46
2022-11-18T21:30:44.887Z,83.22
2022-11-18T21:33:14.318Z,83.24
2022-11-18T21:35:44.073Z,83.34
2022-11-18T21:38:12.345Z,83.63
2022-11-18T21:40:40.791Z,83.75
2022-11-18T21:43:09.342Z,83.62
2022-11-18T21:45:37.585Z,84.27
2022-11-18T21:48:06.712Z,83.77
2022-11-18T21:50:35.060Z,83.83
2022-11-18T21:53:04.839Z,84.55
2022-11-18T21:55:33.237Z,84.63
2022-11-18T21:58:04.135Z,84.64
2022-11-18T22:00:32.723Z,84.74
2022-11-18T22:03:01.201Z,84.73
2022-11-18T22:05:29.504Z,85.09
2022-11-18T22:07:57.942Z,84.68
2022-11-18T22:10:27.645Z,84.79
2022-11-18T22:12:56.129Z,85.30
2022-11-18T22:15:25.368Z,85.78
2022-11-18T22:17:53.744Z,85.63
2022-11-18T22:20:22.107Z,86.18
2022-11-18T22:22:50.474Z,86.25
2022-11-18T22:25:19.096Z,86.62
2022-11-18T22:27:48.918Z,87.29
2022-11-18T22:30:17.676Z,87.22
2022-11-18T22:32:46.181Z,88.08
2022-11-18T22:35:14.873Z,88.46
2022-11-18T22:37:43.267Z,89.02
2022-11-18T22:40:13.322Z,89.21
2022-11-18T22:42:50.649Z,90.01
2022-11-18T22:45:20.486Z,90.95
2022-11-18T22:47:49.680Z,90.74
2022-11-18T22:50:22.181Z,90.77
2022-11-18T22:52:50.607Z,91.03
2022-11-18T22:55:19.448Z,91.39
2022-11-18T22:57:47.818Z,90.71
2022-11-18T23:00:18.889Z,91.62
2022-11-18T23:02:50.196Z,92.64
2022-11-18T23:05:18.536Z,93.16
2022-11-18T23:07:47.039Z,93.07
2022-11-18T23:10:15.518Z,93.46
2022-11-18T23:13:01.987Z,93.37
2022-11-18T23:15:30.287Z,93.32
2022-11-18T23:17:59.967Z,93.10
2022-11-18T23:20:28.487Z,93.47
2022-11-18T23:22:56.849Z,93.09
2022-11-18T23:25:25.329Z,93.40
2022-11-18T23:27:54.462Z,92.92
2022-11-18T23:30:23.312Z,93.28
2022-11-18T23:32:55.049Z,93.78
2022-11-18T23:35:25.510Z,93.85
2022-11-18T23:37:54.853Z,94.08
2022-11-18T23:40:23.597Z,94.46
2022-11-18T23:42:51.916Z,94.50
2022-11-18T23:45:20.334Z,94.37
2022-11-18T23:47:53.871Z,94.55
2022-11-18T23:50:22.489Z,94.51
2022-11-18T23:52:52.338Z,94.65
2022-11-18T23:55:20.751Z,94.98
2022-11-18T23:57:49.107Z,94.83
